Time;durP1;ratioP1;P1;durP2;ratioP2;P2;SDS_P1;SDS_P2;PMS_P1;PMS_P2;Temp;Humidity;BMP_temperature;BMP_pressure;BME280_temperature;BME280_humidity;BME280_pressure;Samples;Min_cycle;Max_cycle;Signal;HPM_P1;HPM_P2
2021/09/18 00:01:50;;;;;;;0.88;0.80;;;20.30;76.80;;;;;;4206248;28;20490;-61
2021/09/18 00:04:12;;;;;;;1.25;0.60;;;20.30;77.00;;;;;;4206416;28;20072;-61
2021/09/18 00:06:34;;;;;;;0.70;0.70;;;20.40;77.00;;;;;;4207354;28;20067;-61
2021/09/18 00:08:56;;;;;;;0.93;0.77;;;20.30;76.70;;;;;;4207152;28;20079;-61
2021/09/18 00:11:18;;;;;;;0.60;0.60;;;20.30;76.50;;;;;;4207207;28;20047;-62
2021/09/18 00:13:42;;;;;;;1.58;0.70;;;20.30;76.50;;;;;;4206996;28;20548;-61
2021/09/18 00:16:04;;;;;;;0.98;0.82;;;20.30;76.50;;;;;;4207208;28;20060;-61
2021/09/18 00:18:26;;;;;;;0.47;0.47;;;20.30;77.00;;;;;;4206853;28;20036;-62
2021/09/18 00:20:49;;;;;;;0.68;0.43;;;20.30;76.90;;;;;;4206890;28;20052;-62
2021/09/18 00:23:11;;;;;;;0.63;0.63;;;20.30;76.80;;;;;;4207170;28;20128;-62
2021/09/18 00:25:36;;;;;;;0.57;0.57;;;20.30;77.10;;;;;;4188319;28;20804;-61
2021/09/18 00:27:58;;;;;;;1.05;0.80;;;20.30;77.40;;;;;;4190591;28;20140;-62
2021/09/18 00:30:21;;;;;;;0.70;0.70;;;20.30;78.10;;;;;;4191101;28;20486;-61
2021/09/18 00:32:43;;;;;;;1.98;0.93;;;20.20;77.00;;;;;;4190930;28;20044;-62
2021/09/18 00:35:07;;;;;;;0.68;0.68;;;20.30;77.10;;;;;;4205009;28;20056;-62
2021/09/18 00:37:32;;;;;;;1.02;0.93;;;20.30;76.80;;;;;;4206732;28;20052;-62
2021/09/18 00:39:54;;;;;;;2.47;0.77;;;20.20;76.90;;;;;;4206831;28;20135;-61
2021/09/18 00:42:17;;;;;;;0.85;0.85;;;20.20;78.10;;;;;;4206864;28;20051;-61
2021/09/18 00:44:38;;;;;;;0.82;0.70;;;20.20;77.20;;;;;;4206865;28;20493;-61
2021/09/18 00:47:02;;;;;;;1.15;0.65;;;20.20;77.30;;;;;;4207242;28;20044;-61
2021/09/18 00:49:24;;;;;;;0.80;0.80;;;20.20;77.30;;;;;;4207163;28;20486;-61
2021/09/18 00:51:46;;;;;;;0.93;0.60;;;20.20;77.40;;;;;;4207141;28;20081;-61
2021/09/18 00:54:09;;;;;;;0.88;0.80;;;20.20;77.30;;;;;;4207227;28;20079;-61
2021/09/18 00:56:32;;;;;;;0.82;0.82;;;20.20;77.30;;;;;;4209693;28;20052;-61
2021/09/18 00:58:55;;;;;;;1.63;0.80;;;20.20;77.40;;;;;;4210024;28;20052;-61
2021/09/18 01:01:17;;;;;;;1.85;1.05;;;20.20;77.30;;;;;;4208981;28;20752;-61
2021/09/18 01:03:43;;;;;;;1.50;0.88;;;20.20;77.50;;;;;;4209891;28;20050;-61
2021/09/18 01:06:06;;;;;;;0.73;0.73;;;20.20;77.20;;;;;;4210422;28;20106;-61
2021/09/18 01:08:29;;;;;;;1.17;0.80;;;20.10;77.40;;;;;;4210348;28;20066;-61
2021/09/18 01:10:52;;;;;;;1.10;0.88;;;20.20;77.20;;;;;;4210277;28;20052;-61
2021/09/18 01:13:17;;;;;;;0.90;0.90;;;20.10;77.40;;;;;;4209820;28;20062;-61
2021/09/18 01:15:40;;;;;;;1.30;0.70;;;20.20;77.60;;;;;;4209620;28;20143;-60
2021/09/18 01:18:03;;;;;;;1.65;0.73;;;20.10;77.50;;;;;;4210363;28;20048;-62
2021/09/18 01:20:27;;;;;;;0.98;0.98;;;20.10;77.60;;;;;;4209912;28;20498;-61
2021/09/18 01:22:49;;;;;;;1.58;1.00;;;20.10;77.50;;;;;;4209748;28;20087;-61
2021/09/18 01:25:13;;;;;;;1.60;0.90;;;20.10;77.70;;;;;;4210260;28;20135;-61
2021/09/18 01:27:35;;;;;;;3.00;1.15;;;20.10;77.60;;;;;;4209554;28;20046;-61
2021/09/18 01:29:57;;;;;;;1.75;1.25;;;20.10;77.80;;;;;;4209716;28;20055;-61
2021/09/18 01:32:21;;;;;;;1.38;1.25;;;20.10;77.50;;;;;;4209812;28;20567;-62
2021/09/18 01:34:43;;;;;;;0.90;0.90;;;20.10;76.90;;;;;;4192567;28;20111;-61
2021/09/18 01:37:06;;;;;;;1.20;1.10;;;20.10;77.00;;;;;;4192501;28;20436;-62
2021/09/18 01:39:28;;;;;;;0.95;0.90;;;20.10;77.20;;;;;;4200289;28;20147;-61
2021/09/18 01:41:52;;;;;;;0.85;0.80;;;20.10;77.10;;;;;;4209446;28;20043;-62
2021/09/18 01:44:15;;;;;;;1.38;1.20;;;20.10;77.00;;;;;;4209349;28;20084;-62
2021/09/18 01:46:37;;;;;;;1.23;0.90;;;20.10;77.40;;;;;;4209303;28;20406;-61
2021/09/18 01:49:00;;;;;;;1.30;1.20;;;20.10;77.60;;;;;;4207514;28;20082;-61
2021/09/18 01:51:22;;;;;;;2.33;1.15;;;20.10;77.60;;;;;;4207850;28;20048;-61
2021/09/18 01:53:46;;;;;;;2.50;1.08;;;20.00;77.10;;;;;;4207608;28;20051;-61
2021/09/18 01:56:08;;;;;;;0.77;0.77;;;20.10;77.50;;;;;;4207576;28;20399;-61
2021/09/18 01:58:31;;;;;;;1.30;1.20;;;20.00;77.60;;;;;;4207846;28;20059;-61
2021/09/18 02:00:55;;;;;;;1.02;1.02;;;20.10;77.50;;;;;;4208913;28;20755;-62
2021/09/18 02:03:18;;;;;;;0.90;0.90;;;20.00;77.30;;;;;;4209440;28;20048;-61
2021/09/18 02:05:41;;;;;;;1.33;0.90;;;20.00;77.60;;;;;;4208958;28;20125;-61
2021/09/18 02:08:04;;;;;;;1.35;1.00;;;20.00;77.70;;;;;;4209198;28;20105;-61
2021/09/18 02:10:28;;;;;;;1.20;1.10;;;20.00;77.70;;;;;;4209072;28;20079;-61
2021/09/18 02:12:51;;;;;;;1.20;1.15;;;20.00;77.50;;;;;;4208517;28;20478;-61
2021/09/18 02:15:17;;;;;;;1.85;1.20;;;20.00;77.60;;;;;;4208955;28;20149;-61
2021/09/18 02:17:40;;;;;;;1.80;1.13;;;20.00;77.50;;;;;;4208715;28;20086;-62
2021/09/18 02:20:03;;;;;;;1.50;0.98;;;20.00;77.70;;;;;;4207131;28;20079;-61
2021/09/18 02:22:25;;;;;;;1.75;1.38;;;20.00;77.60;;;;;;4208728;28;20141;-61
2021/09/18 02:24:48;;;;;;;0.90;0.90;;;20.00;77.80;;;;;;4208849;28;20452;-61
2021/09/18 02:27:11;;;;;;;1.15;1.05;;;20.00;77.80;;;;;;4208625;28;20051;-61
2021/09/18 02:29:33;;;;;;;1.48;1.00;;;20.00;77.80;;;;;;4192103;28;20083;-61
2021/09/18 02:31:56;;;;;;;1.25;1.10;;;19.90;77.80;;;;;;4192044;28;20388;-62
2021/09/18 02:34:18;;;;;;;0.95;0.93;;;20.00;77.60;;;;;;4191865;28;20044;-60
2021/09/18 02:36:41;;;;;;;0.90;0.90;;;20.00;77.60;;;;;;4191742;28;20110;-61
2021/09/18 02:39:03;;;;;;;1.42;1.30;;;20.00;77.80;;;;;;4206960;28;20056;-62
2021/09/18 02:41:26;;;;;;;1.55;1.20;;;19.90;77.60;;;;;;4208393;28;20044;-62
2021/09/18 02:43:48;;;;;;;1.52;1.20;;;20.00;77.70;;;;;;4208375;28;20059;-62
2021/09/18 02:46:10;;;;;;;1.20;1.10;;;19.90;77.50;;;;;;4208506;28;20057;-61
2021/09/18 02:48:34;;;;;;;1.30;1.30;;;19.90;77.40;;;;;;4208132;28;20044;-62
2021/09/18 02:51:07;;;;;;;1.30;1.30;;;19.90;77.30;;;;;;4208295;28;20047;-61
2021/09/18 02:53:29;;;;;;;1.30;1.20;;;19.90;78.60;;;;;;4208796;28;20523;-61
2021/09/18 02:55:51;;;;;;;1.20;1.10;;;19.90;77.70;;;;;;4208305;28;20040;-61
2021/09/18 02:58:14;;;;;;;1.27;1.27;;;19.90;77.50;;;;;;4207830;28;20048;-62
2021/09/18 03:00:36;;;;;;;1.50;1.30;;;19.90;77.40;;;;;;4208613;28;20048;-62
2021/09/18 03:02:58;;;;;;;1.63;1.10;;;19.90;77.10;;;;;;4191577;28;20792;-61
2021/09/18 03:05:22;;;;;;;1.20;1.20;;;19.90;77.10;;;;;;4208077;28;20043;-62
2021/09/18 03:07:44;;;;;;;1.20;1.10;;;19.90;76.90;;;;;;4207869;28;20067;-62
2021/09/18 03:10:09;;;;;;;1.27;1.27;;;19.90;77.20;;;;;;4207927;28;20101;-61
2021/09/18 03:12:35;;;;;;;1.77;1.05;;;19.90;77.10;;;;;;4207774;28;20131;-61
2021/09/18 03:14:57;;;;;;;1.55;1.50;;;19.90;77.60;;;;;;4207869;28;20048;-62
2021/09/18 03:17:20;;;;;;;2.33;1.42;;;19.90;77.50;;;;;;4206847;28;20093;-61
2021/09/18 03:19:42;;;;;;;1.50;1.10;;;19.90;77.50;;;;;;4191066;28;20052;-61
2021/09/18 03:22:06;;;;;;;1.25;1.15;;;19.80;77.60;;;;;;4191105;28;20509;-60
2021/09/18 03:24:28;;;;;;;1.65;1.17;;;19.80;77.60;;;;;;4190743;28;20052;-61
2021/09/18 03:26:50;;;;;;;1.10;1.10;;;19.80;77.60;;;;;;4193918;28;20131;-61
2021/09/18 03:29:13;;;;;;;1.52;1.25;;;19.80;77.80;;;;;;4207700;28;20051;-61
2021/09/18 03:31:35;;;;;;;1.00;1.00;;;19.80;77.70;;;;;;4207715;28;20063;-61
2021/09/18 03:33:57;;;;;;;1.30;1.30;;;19.80;77.60;;;;;;4207565;28;20089;-63
2021/09/18 03:36:19;;;;;;;1.33;1.30;;;19.80;77.50;;;;;;4207115;28;20564;-61
2021/09/18 03:38:43;;;;;;;1.75;1.35;;;19.80;77.70;;;;;;4207244;28;20044;-60
2021/09/18 03:41:06;;;;;;;1.27;1.27;;;19.80;77.70;;;;;;4207530;28;20052;-62
2021/09/18 03:43:28;;;;;;;1.60;1.50;;;19.80;77.90;;;;;;4207589;28;20125;-62
2021/09/18 03:45:51;;;;;;;1.48;1.42;;;19.80;77.90;;;;;;4207811;28;20063;-62
2021/09/18 03:48:14;;;;;;;1.17;1.15;;;19.80;77.80;;;;;;4191041;28;20703;-62
2021/09/18 03:50:36;;;;;;;1.30;1.27;;;19.80;77.90;;;;;;4191355;28;20428;-62
2021/09/18 03:52:58;;;;;;;1.85;1.58;;;19.80;77.90;;;;;;4191267;28;20056;-61
2021/09/18 03:55:22;;;;;;;1.27;1.27;;;19.80;77.60;;;;;;4191187;28;20070;-61
2021/09/18 03:57:44;;;;;;;1.70;1.60;;;19.70;77.50;;;;;;4203434;28;20414;-61
2021/09/18 04:00:08;;;;;;;3.63;1.58;;;19.80;77.90;;;;;;4207122;28;20056;-61
2021/09/18 04:02:30;;;;;;;1.50;1.40;;;19.70;77.80;;;;;;4207613;28;20563;-61
2021/09/18 04:04:52;;;;;;;1.77;1.60;;;19.70;78.00;;;;;;4207287;28;20050;-61
2021/09/18 04:07:14;;;;;;;1.77;1.55;;;19.70;78.90;;;;;;4206825;28;20040;-61
2021/09/18 04:09:36;;;;;;;1.70;1.60;;;19.70;78.00;;;;;;4207620;28;20052;-61
2021/09/18 04:11:59;;;;;;;1.60;1.50;;;19.70;78.10;;;;;;4207524;28;20123;-61
2021/09/18 04:14:22;;;;;;;1.77;1.67;;;19.70;77.80;;;;;;4207802;28;20409;-62
2021/09/18 04:16:44;;;;;;;1.77;1.67;;;19.70;78.00;;;;;;4207054;28;20502;-62
2021/09/18 04:19:07;;;;;;;1.42;1.33;;;19.70;78.00;;;;;;4207365;28;20040;-61
2021/09/18 04:21:29;;;;;;;1.85;1.55;;;19.70;78.10;;;;;;4207744;28;20044;-61
2021/09/18 04:23:51;;;;;;;1.67;1.58;;;19.70;78.10;;;;;;4207741;28;20135;-61
2021/09/18 04:26:13;;;;;;;1.48;1.38;;;19.70;78.30;;;;;;4190473;28;20045;-61
2021/09/18 04:28:36;;;;;;;1.30;1.27;;;19.70;78.10;;;;;;4192167;28;20052;-60
2021/09/18 04:30:59;;;;;;;1.50;1.50;;;19.70;77.80;;;;;;4194565;28;20055;-61
2021/09/18 04:33:21;;;;;;;2.00;1.90;;;19.70;78.20;;;;;;4209307;28;20051;-61
2021/09/18 04:35:43;;;;;;;1.60;1.50;;;19.70;78.20;;;;;;4210721;28;20063;-61
2021/09/18 04:38:05;;;;;;;1.70;1.60;;;19.70;78.20;;;;;;4209095;28;20101;-62
2021/09/18 04:40:27;;;;;;;1.45;1.45;;;19.70;78.10;;;;;;4210559;28;20082;-61
2021/09/18 04:42:49;;;;;;;2.10;2.00;;;19.60;78.00;;;;;;4208968;28;20079;-61
2021/09/18 04:45:13;;;;;;;1.92;1.92;;;19.60;78.10;;;;;;4210157;28;20050;-60
2021/09/18 04:47:35;;;;;;;1.95;1.90;;;19.60;78.00;;;;;;4210020;28;20044;-61
2021/09/18 04:49:57;;;;;;;1.80;1.70;;;19.60;78.30;;;;;;4210333;28;20051;-61
2021/09/18 04:52:20;;;;;;;2.15;2.05;;;19.60;78.30;;;;;;4210223;28;20574;-61
2021/09/18 04:54:42;;;;;;;1.75;1.65;;;19.60;78.40;;;;;;4210391;28;20091;-61
2021/09/18 04:57:04;;;;;;;1.67;1.48;;;19.60;78.40;;;;;;4208809;28;20056;-62
2021/09/18 04:59:27;;;;;;;1.60;1.50;;;19.60;78.30;;;;;;4209845;28;20054;-61
2021/09/18 05:01:50;;;;;;;1.80;1.70;;;19.60;78.10;;;;;;4210099;28;20047;-61
2021/09/18 05:04:13;;;;;;;2.00;1.90;;;19.60;77.90;;;;;;4209977;28;20054;-62
2021/09/18 05:06:35;;;;;;;1.92;1.83;;;19.60;78.30;;;;;;4210242;28;20126;-61
2021/09/18 05:08:58;;;;;;;2.78;1.80;;;19.60;78.30;;;;;;4210361;28;20082;-61
2021/09/18 05:11:20;;;;;;;2.35;2.03;;;19.60;78.40;;;;;;4210150;28;20456;-61
2021/09/18 05:13:42;;;;;;;1.48;1.48;;;19.60;78.30;;;;;;4209920;28;20139;-61
2021/09/18 05:16:04;;;;;;;1.80;1.70;;;19.60;78.40;;;;;;4209512;28;20052;-61
2021/09/18 05:18:30;;;;;;;1.77;1.73;;;19.60;78.40;;;;;;4208804;28;20099;-62
2021/09/18 05:20:52;;;;;;;2.97;2.13;;;19.60;78.30;;;;;;4209932;28;20494;-61
2021/09/18 05:23:13;;;;;;;1.90;1.80;;;19.60;78.50;;;;;;4210797;28;20048;-62
2021/09/18 05:25:36;;;;;;;2.75;1.80;;;19.60;78.40;;;;;;4210264;28;20055;-62
2021/09/18 05:27:58;;;;;;;2.25;1.98;;;19.60;78.30;;;;;;4209762;28;20120;-61
2021/09/18 05:30:20;;;;;;;1.90;1.80;;;19.60;78.50;;;;;;4209443;28;20072;-62
2021/09/18 05:32:43;;;;;;;3.15;1.83;;;19.50;78.50;;;;;;4209809;28;20055;-64
2021/09/18 05:35:07;;;;;;;3.35;1.88;;;19.50;78.10;;;;;;4210345;28;20066;-62
2021/09/18 05:37:30;;;;;;;1.98;1.65;;;19.60;78.70;;;;;;4209421;28;20130;-61
2021/09/18 05:39:52;;;;;;;2.30;2.10;;;19.60;78.60;;;;;;4207119;28;20437;-63
2021/09/18 05:42:14;;;;;;;1.92;1.80;;;19.60;78.50;;;;;;4209628;28;20464;-62
2021/09/18 05:44:36;;;;;;;1.92;1.83;;;19.60;78.50;;;;;;4209776;28;20674;-61
2021/09/18 05:46:58;;;;;;;1.90;1.80;;;19.60;78.40;;;;;;4208984;28;20050;-62
2021/09/18 05:49:20;;;;;;;2.17;1.95;;;19.60;78.30;;;;;;4209525;28;20048;-60
2021/09/18 05:51:44;;;;;;;2.08;1.88;;;19.60;78.30;;;;;;4209408;28;20048;-63
2021/09/18 05:54:06;;;;;;;2.03;1.88;;;19.60;78.00;;;;;;4208610;28;20071;-61
2021/09/18 05:56:28;;;;;;;1.73;1.70;;;19.50;77.90;;;;;;4206872;28;20134;-60
2021/09/18 05:58:53;;;;;;;2.30;1.80;;;19.50;78.10;;;;;;4208788;28;20048;-60
2021/09/18 06:01:15;;;;;;;1.80;1.70;;;19.50;78.30;;;;;;4191679;28;20060;-60
2021/09/18 06:03:37;;;;;;;2.00;1.90;;;19.50;78.30;;;;;;4191213;28;20529;-61
2021/09/18 06:05:59;;;;;;;2.05;1.80;;;19.50;78.40;;;;;;4190442;28;20044;-61
2021/09/18 06:08:23;;;;;;;3.47;1.75;;;19.50;78.40;;;;;;4191774;28;20127;-62
2021/09/18 06:10:45;;;;;;;2.28;2.10;;;19.50;78.40;;;;;;4206033;28;20044;-61
2021/09/18 06:13:07;;;;;;;1.75;1.70;;;19.50;81.40;;;;;;4208398;28;20048;-61
2021/09/18 06:15:30;;;;;;;2.20;2.10;;;19.50;83.00;;;;;;4192227;28;20048;-61
2021/09/18 06:17:52;;;;;;;2.33;2.22;;;19.60;83.60;;;;;;4190891;28;20060;-60
2021/09/18 06:20:14;;;;;;;2.28;2.17;;;19.60;83.70;;;;;;4191949;28;20128;-60
2021/09/18 06:22:36;;;;;;;2.25;2.05;;;19.60;83.80;;;;;;4192564;28;20053;-60
2021/09/18 06:25:00;;;;;;;2.58;2.38;;;19.60;83.70;;;;;;4206636;28;20135;-61
2021/09/18 06:27:22;;;;;;;2.03;1.92;;;19.60;83.10;;;;;;4208906;28;20106;-60
2021/09/18 06:29:45;;;;;;;3.92;2.03;;;19.60;83.00;;;;;;4208340;28;20040;-61
2021/09/18 06:32:08;;;;;;;2.75;2.17;;;19.60;82.40;;;;;;4208598;28;20059;-61
2021/09/18 06:34:30;;;;;;;2.90;2.45;;;19.60;81.90;;;;;;4207905;28;20047;-62
2021/09/18 06:36:52;;;;;;;2.83;2.22;;;19.60;81.40;;;;;;4208406;28;20160;-60
2021/09/18 06:39:14;;;;;;;2.35;2.25;;;19.60;81.20;;;;;;4208334;28;20056;-61
2021/09/18 06:41:37;;;;;;;2.50;2.30;;;19.50;80.80;;;;;;4199935;28;20052;-60
2021/09/18 06:44:00;;;;;;;2.30;2.20;;;19.50;80.50;;;;;;4198705;28;20052;-60
2021/09/18 06:46:22;;;;;;;2.40;2.30;;;19.50;80.60;;;;;;4208856;28;20078;-61
2021/09/18 06:48:45;;;;;;;2.28;2.00;;;19.50;80.60;;;;;;4208185;28;20064;-61
2021/09/18 06:51:07;;;;;;;2.63;2.40;;;19.50;80.70;;;;;;4208232;28;20054;-60
2021/09/18 06:53:29;;;;;;;2.58;2.20;;;19.50;80.70;;;;;;4208097;28;20481;-61
2021/09/18 06:55:52;;;;;;;2.22;2.00;;;19.50;80.60;;;;;;4208131;28;20043;-61
2021/09/18 06:58:15;;;;;;;2.42;2.22;;;19.50;80.50;;;;;;4208128;28;20055;-62
2021/09/18 07:00:37;;;;;;;2.22;2.13;;;19.50;80.20;;;;;;4209972;28;20506;-61
2021/09/18 07:03:00;;;;;;;2.47;2.30;;;19.40;81.10;;;;;;4223045;28;20525;-61
2021/09/18 07:05:23;;;;;;;2.40;2.30;;;19.40;80.10;;;;;;4198822;28;20052;-62
2021/09/18 07:07:46;;;;;;;2.30;2.20;;;19.40;80.10;;;;;;4203893;28;20087;-59
2021/09/18 07:10:09;;;;;;;2.30;2.10;;;19.40;80.00;;;;;;4207567;28;20068;-62
2021/09/18 07:12:31;;;;;;;2.13;2.03;;;19.40;80.00;;;;;;4208290;28;20066;-60
2021/09/18 07:14:55;;;;;;;2.10;2.00;;;19.40;80.00;;;;;;4191337;28;20541;-61
2021/09/18 07:17:17;;;;;;;2.10;2.00;;;19.40;79.80;;;;;;4208072;28;20048;-60
2021/09/18 07:19:39;;;;;;;2.95;1.80;;;19.40;79.90;;;;;;4208597;28;20089;-60
2021/09/18 07:22:01;;;;;;;1.83;1.73;;;19.40;80.00;;;;;;4207855;28;20051;-60
2021/09/18 07:24:23;;;;;;;2.35;2.00;;;19.40;80.20;;;;;;4208178;28;20503;-61
2021/09/18 07:26:46;;;;;;;3.58;2.30;;;19.40;80.30;;;;;;4207650;28;20066;-61
2021/09/18 07:29:07;;;;;;;2.88;1.75;;;19.40;80.40;;;;;;4208157;28;20138;-60
2021/09/18 07:31:31;;;;;;;1.88;1.50;;;19.40;80.60;;;;;;4207593;28;20047;-60
2021/09/18 07:33:54;;;;;;;1.75;1.52;;;19.40;80.30;;;;;;4207720;28;20039;-61
2021/09/18 07:36:16;;;;;;;1.77;1.67;;;19.40;80.40;;;;;;4207955;28;20048;-59
2021/09/18 07:38:38;;;;;;;2.78;1.40;;;19.40;80.60;;;;;;4207492;28;20044;-59
2021/09/18 07:41:00;;;;;;;2.70;1.70;;;19.40;80.50;;;;;;4207916;28;20217;-59
2021/09/18 07:43:23;;;;;;;2.20;1.92;;;19.40;80.30;;;;;;4208028;28;20052;-59
2021/09/18 07:45:44;;;;;;;1.95;1.80;;;19.40;80.40;;;;;;4207474;28;20052;-59
2021/09/18 07:48:08;;;;;;;2.33;1.80;;;19.40;80.60;;;;;;4207314;28;20055;-60
2021/09/18 07:50:30;;;;;;;1.50;1.40;;;19.40;80.60;;;;;;4206883;28;20050;-59
2021/09/18 07:52:53;;;;;;;2.35;2.17;;;19.40;80.70;;;;;;4207229;28;20387;-59
2021/09/18 07:55:15;;;;;;;2.15;1.83;;;19.40;80.60;;;;;;4206938;28;20458;-59
2021/09/18 07:57:57;;;;;;;1.98;1.58;;;19.40;80.40;;;;;;4205337;28;20079;-55
2021/09/18 08:00:20;;;;;;;1.65;1.52;;;19.40;80.60;;;;;;4190855;28;20041;-60
2021/09/18 08:02:42;;;;;;;1.75;1.65;;;19.40;80.50;;;;;;4206116;28;20101;-59
2021/09/18 08:05:06;;;;;;;2.90;1.40;;;19.40;80.90;;;;;;4206892;28;20131;-58
2021/09/18 08:07:29;;;;;;;1.70;1.55;;;19.40;80.80;;;;;;4198356;28;20058;-58
2021/09/18 08:09:53;;;;;;;2.13;1.92;;;19.40;81.10;;;;;;4205890;28;20090;-59
2021/09/18 08:12:18;;;;;;;1.75;1.65;;;19.40;81.20;;;;;;4198784;28;20414;-62
2021/09/18 08:14:40;;;;;;;2.15;1.40;;;19.40;81.30;;;;;;4205099;28;20044;-60
2021/09/18 08:17:03;;;;;;;1.92;1.70;;;19.40;81.50;;;;;;4207384;28;20048;-60
2021/09/18 08:19:25;;;;;;;2.35;1.25;;;19.50;81.20;;;;;;4207079;28;20067;-59
2021/09/18 08:21:49;;;;;;;1.58;1.23;;;19.50;80.30;;;;;;4206945;28;20052;-59
2021/09/18 08:24:12;;;;;;;1.88;1.20;;;19.50;79.80;;;;;;4206907;28;20460;-60
2021/09/18 08:26:34;;;;;;;1.63;1.52;;;19.50;80.30;;;;;;4207238;28;20036;-60
2021/09/18 08:29:00;;;;;;;2.17;2.08;;;19.50;80.10;;;;;;4206416;28;20097;-60
2021/09/18 08:31:23;;;;;;;2.85;2.30;;;19.60;80.40;;;;;;4206990;28;20052;-60
2021/09/18 08:33:45;;;;;;;2.05;1.90;;;19.60;80.70;;;;;;4206471;28;20574;-60
2021/09/18 08:36:07;;;;;;;1.90;1.80;;;19.70;81.00;;;;;;4207143;28;20044;-60
2021/09/18 08:38:31;;;;;;;4.28;2.40;;;19.70;80.70;;;;;;4207113;28;20044;-60
2021/09/18 08:40:54;;;;;;;3.40;1.92;;;19.70;80.60;;;;;;4207240;28;20091;-60
2021/09/18 08:43:16;;;;;;;1.83;1.73;;;19.70;79.70;;;;;;4206973;28;20047;-60
2021/09/18 08:45:38;;;;;;;1.80;1.70;;;19.70;79.40;;;;;;4206759;28;20074;-60
2021/09/18 08:48:03;;;;;;;1.90;1.80;;;19.80;79.30;;;;;;4206781;28;20044;-60
2021/09/18 08:50:25;;;;;;;2.53;1.50;;;19.80;79.00;;;;;;4207272;28;20478;-60
2021/09/18 08:52:48;;;;;;;2.05;1.88;;;19.80;77.90;;;;;;4207320;28;20048;-60
2021/09/18 08:55:12;;;;;;;1.98;1.75;;;19.80;78.20;;;;;;4206887;28;20052;-60
2021/09/18 08:57:34;;;;;;;2.63;2.50;;;19.80;78.40;;;;;;4206156;28;20056;-60
2021/09/18 08:59:57;;;;;;;2.28;2.17;;;19.80;78.70;;;;;;4206697;28;20535;-60
2021/09/18 09:02:23;;;;;;;2.53;2.33;;;19.80;78.60;;;;;;4206977;28;20052;-59
2021/09/18 09:04:46;;;;;;;2.28;2.17;;;19.80;78.50;;;;;;4206408;28;20051;-59
2021/09/18 09:07:11;;;;;;;2.35;2.25;;;19.80;78.90;;;;;;4206480;28;20144;-59
2021/09/18 09:09:51;;;;;;;2.13;2.03;;;19.80;77.80;;;;;;4202557;28;20048;-59
2021/09/18 09:12:24;;;;;;;2.25;2.15;;;19.80;77.30;;;;;;4207071;28;20059;-59
2021/09/18 09:14:49;;;;;;;2.20;2.10;;;19.80;77.40;;;;;;4207077;28;20048;-60
2021/09/18 09:17:11;;;;;;;2.25;2.05;;;19.80;77.30;;;;;;4210292;28;20079;-59
2021/09/18 09:19:39;;;;;;;2.35;2.10;;;19.90;77.20;;;;;;4192937;28;20052;-60
2021/09/18 09:22:01;;;;;;;2.30;2.20;;;19.90;76.90;;;;;;4192771;28;20524;-60
2021/09/18 09:24:25;;;;;;;2.40;2.30;;;19.90;77.60;;;;;;4209993;28;20051;-60
2021/09/18 09:27:06;;;;;;;2.03;1.80;;;19.90;77.80;;;;;;4210035;28;20048;-60
2021/09/18 09:29:41;;;;;;;2.40;2.30;;;19.90;76.60;;;;;;4209853;28;20044;-59
2021/09/18 09:32:27;;;;;;;2.60;2.40;;;19.90;75.50;;;;;;4209062;28;20040;-59
2021/09/18 09:34:53;;;;;;;3.90;3.45;;;20.00;74.90;;;;;;4209540;28;20074;-60
2021/09/18 09:37:16;;;;;;;2.70;2.20;;;20.00;75.90;;;;;;4210042;28;20143;-60
2021/09/18 09:39:38;;;;;;;2.30;2.10;;;20.10;76.80;;;;;;4209259;28;20437;-60
2021/09/18 09:42:01;;;;;;;2.28;2.10;;;20.10;76.20;;;;;;4209237;28;20097;-60
2021/09/18 09:44:25;;;;;;;2.17;2.08;;;20.20;76.50;;;;;;4209681;28;20079;-60
2021/09/18 09:47:01;;;;;;;3.45;2.20;;;20.20;76.10;;;;;;4209622;28;20044;-61
2021/09/18 09:49:24;;;;;;;2.47;2.38;;;20.30;76.20;;;;;;4207397;28;20040;-60
2021/09/18 09:51:46;;;;;;;3.03;2.83;;;20.30;76.40;;;;;;4208976;28;20052;-61
2021/09/18 09:54:19;;;;;;;3.00;2.80;;;20.40;75.30;;;;;;4208915;28;20052;-61
2021/09/18 09:56:41;;;;;;;3.55;3.35;;;20.40;73.10;;;;;;4208708;28;20098;-59
2021/09/18 09:59:03;;;;;;;3.53;3.33;;;20.40;72.10;;;;;;4208935;28;20109;-60
2021/09/18 10:01:26;;;;;;;3.40;3.15;;;20.50;71.90;;;;;;4209584;28;20541;-59
2021/09/18 10:03:50;;;;;;;3.65;2.85;;;20.50;72.80;;;;;;4209250;28;20082;-59
2021/09/18 10:06:14;;;;;;;4.45;2.70;;;20.50;72.80;;;;;;4209148;28;20059;-61
2021/09/18 10:08:48;;;;;;;3.17;2.97;;;20.60;73.60;;;;;;4209110;28;20047;-59
2021/09/18 10:11:11;;;;;;;3.08;2.85;;;20.60;73.80;;;;;;4208736;28;20040;-60
2021/09/18 10:13:34;;;;;;;3.47;3.28;;;20.60;74.00;;;;;;4208575;28;20567;-60
2021/09/18 10:15:56;;;;;;;4.85;4.32;;;20.70;74.30;;;;;;4208924;28;20048;-60
2021/09/18 10:18:19;;;;;;;4.05;3.85;;;20.70;74.40;;;;;;4208055;28;20490;-60
2021/09/18 10:23:27;;;;;;;5.10;4.70;;;20.80;74.30;;;;;;4208916;28;20044;-61
2021/09/18 10:25:51;;;;;;;4.97;4.68;;;20.80;73.80;;;;;;4209079;28;20044;-60
2021/09/18 10:28:15;;;;;;;3.60;3.40;;;20.80;72.80;;;;;;4209211;28;20047;-60
2021/09/18 10:30:40;;;;;;;4.55;4.25;;;20.90;72.40;;;;;;4209051;28;20482;-60
2021/09/18 10:33:04;;;;;;;4.03;3.83;;;20.90;71.80;;;;;;4196814;28;20055;-60
2021/09/18 10:35:26;;;;;;;2.13;2.03;;;20.90;72.60;;;;;;4208631;28;20056;-60
2021/09/18 10:37:50;;;;;;;1.98;1.77;;;20.90;72.70;;;;;;4208411;28;20391;-59
2021/09/18 10:40:14;;;;;;;2.20;2.10;;;21.00;73.00;;;;;;4199415;28;20379;-59
2021/09/18 10:42:40;;;;;;;2.00;1.90;;;21.00;71.00;;;;;;4201245;28;20079;-59
2021/09/18 10:45:03;;;;;;;2.70;2.08;;;21.00;71.70;;;;;;4204327;28;20383;-58
2021/09/18 10:47:37;;;;;;;2.38;2.08;;;21.00;71.80;;;;;;4208682;28;20056;-61
2021/09/18 10:50:00;;;;;;;2.40;2.30;;;21.00;72.50;;;;;;4191579;28;20135;-62
2021/09/18 10:52:24;;;;;;;1.70;1.60;;;21.10;72.70;;;;;;4191876;28;20465;-62
2021/09/18 10:55:09;;;;;;;1.42;1.30;;;21.10;71.40;;;;;;4191491;28;20045;-62
2021/09/18 10:58:05;;;;;;;0.70;0.70;;;21.10;71.70;;;;;;4201163;28;20127;-59
2021/09/18 11:00:54;;;;;;;1.48;0.80;;;21.10;71.60;;;;;;4207999;28;20746;-60
2021/09/18 11:03:46;;;;;;;0.75;0.75;;;21.10;71.70;;;;;;4208010;28;20117;-59
2021/09/18 11:06:10;;;;;;;0.80;0.80;;;21.10;70.50;;;;;;4171201;28;20048;-57
2021/09/18 11:08:35;;;;;;;0.70;0.70;;;21.10;69.40;;;;;;4190547;28;20084;-60
2021/09/18 11:11:03;;;;;;;1.00;0.60;;;21.20;68.40;;;;;;4190309;28;20514;-59
2021/09/18 11:13:27;;;;;;;0.65;0.65;;;21.20;69.70;;;;;;4206952;28;20048;-60
2021/09/18 11:15:51;;;;;;;1.55;0.40;;;21.20;68.80;;;;;;4207097;28;20047;-60
2021/09/18 11:18:16;;;;;;;0.50;0.50;;;21.20;69.50;;;;;;4207698;28;20063;-59
2021/09/18 11:20:39;;;;;;;2.15;0.90;;;21.30;68.60;;;;;;4184041;28;20507;-60
2021/09/18 11:23:01;;;;;;;0.57;0.57;;;21.30;68.90;;;;;;4174030;28;20049;-59
2021/09/18 11:25:30;;;;;;;0.40;0.40;;;21.30;69.20;;;;;;4175138;28;20585;-61
2021/09/18 11:28:02;;;;;;;1.27;0.65;;;21.30;67.70;;;;;;4206625;28;20044;-61
2021/09/18 11:30:24;;;;;;;;;;;21.30;66.60;;;;;;4207602;28;20387;-60
2021/09/18 11:32:47;;;;;;;0.85;0.55;;;21.40;67.30;;;;;;4206522;28;19920;-60
2021/09/18 11:35:10;;;;;;;0.70;0.60;;;21.40;68.50;;;;;;4205630;28;20460;-60
2021/09/18 11:37:35;;;;;;;0.90;0.90;;;21.40;68.00;;;;;;4204806;28;20055;-60
2021/09/18 11:40:00;;;;;;;0.93;0.93;;;21.40;68.70;;;;;;4206074;28;20059;-59
2021/09/18 11:42:33;;;;;;;0.98;0.90;;;21.40;68.80;;;;;;4205950;28;20494;-58
2021/09/18 11:45:01;;;;;;;1.40;0.95;;;21.50;68.30;;;;;;4204817;28;20044;-60
2021/09/18 11:47:30;;;;;;;1.48;0.77;;;21.50;67.40;;;;;;4204917;28;20040;-59
2021/09/18 11:49:54;;;;;;;1.02;0.70;;;21.50;68.40;;;;;;4198924;28;20051;-60
2021/09/18 11:52:16;;;;;;;1.40;0.90;;;21.50;68.30;;;;;;4206809;28;20116;-59
2021/09/18 11:54:38;;;;;;;1.00;1.00;;;21.50;68.10;;;;;;4207455;28;20059;-59
2021/09/18 11:57:12;;;;;;;1.20;1.10;;;21.50;67.10;;;;;;4205222;28;20456;-59
2021/09/18 11:59:36;;;;;;;1.45;1.00;;;21.50;67.50;;;;;;4206541;28;20158;-60
2021/09/18 12:02:00;;;;;;;0.90;0.90;;;21.50;68.10;;;;;;4205179;28;20052;-60
2021/09/18 12:04:37;;;;;;;0.88;0.70;;;21.50;68.00;;;;;;4205009;28;20046;-59
2021/09/18 12:07:01;;;;;;;0.98;0.85;;;21.50;68.30;;;;;;4206694;28;20056;-58
2021/09/18 12:09:28;;;;;;;1.02;0.80;;;21.50;68.30;;;;;;4205205;28;20107;-59
2021/09/18 12:11:51;;;;;;;0.95;0.75;;;21.50;68.20;;;;;;4205993;28;20048;-59
2021/09/18 12:14:13;;;;;;;0.60;0.52;;;21.50;68.30;;;;;;4206893;28;20457;-59
2021/09/18 12:16:36;;;;;;;0.70;0.70;;;21.50;67.80;;;;;;4204405;28;20464;-59
2021/09/18 12:19:01;;;;;;;0.90;0.90;;;21.50;66.50;;;;;;4204633;28;20066;-59
2021/09/18 12:21:25;;;;;;;1.08;1.00;;;21.50;67.60;;;;;;4198120;28;20052;-59
2021/09/18 12:23:50;;;;;;;1.00;1.00;;;21.50;67.40;;;;;;4206787;28;20483;-59
2021/09/18 12:26:14;;;;;;;0.82;0.82;;;21.50;66.10;;;;;;4189187;28;20131;-58
2021/09/18 12:28:38;;;;;;;0.80;0.80;;;21.60;67.60;;;;;;4205904;28;20050;-60
2021/09/18 12:31:14;;;;;;;1.90;1.00;;;21.60;68.00;;;;;;4205597;28;20052;-59
2021/09/18 12:33:36;;;;;;;0.80;0.80;;;21.60;67.50;;;;;;4205006;28;20135;-60